sensor_id;sensor_type;location;lat;lon;timestamp;temperature;humidity
8662;DHT22;29684;47.722;9.388;2023-03-17T00:02:36;3.10;99.90
8662;DHT22;29684;47.722;9.388;2023-03-17T00:05:23;3.10;99.90
8662;DHT22;29684;47.722;9.388;2023-03-17T00:08:18;3.10;99.90
8662;DHT22;29684;47.722;9.388;2023-03-17T00:11:05;3.00;99.90
8662;DHT22;29684;47.722;9.388;2023-03-17T00:13:49;3.10;99.90
8662;DHT22;29684;47.722;9.388;2023-03-17T00:16:37;3.10;99.90
8662;DHT22;29684;47.722;9.388;2023-03-17T00:19:30;3.00;99.90
8662;DHT22;29684;47.722;9.388;2023-03-17T00:22:16;3.10;99.90
8662;DHT22;29684;47.722;9.388;2023-03-17T00:25:01;2.90;99.90
8662;DHT22;29684;47.722;9.388;2023-03-17T00:27:46;2.80;99.90
8662;DHT22;29684;47.722;9.388;2023-03-17T00:30:30;2.70;99.90
8662;DHT22;29684;47.722;9.388;2023-03-17T00:33:15;2.50;99.90
8662;DHT22;29684;47.722;9.388;2023-03-17T00:36:00;2.40;99.90
8662;DHT22;29684;47.722;9.388;2023-03-17T00:38:44;2.30;99.90
8662;DHT22;29684;47.722;9.388;2023-03-17T00:41:29;2.30;99.90
8662;DHT22;29684;47.722;9.388;2023-03-17T00:44:13;2.30;99.90
8662;DHT22;29684;47.722;9.388;2023-03-17T00:46:58;2.20;99.90
8662;DHT22;29684;47.722;9.388;2023-03-17T00:49:42;2.30;99.90
8662;DHT22;29684;47.722;9.388;2023-03-17T00:52:26;2.20;99.90
8662;DHT22;29684;47.722;9.388;2023-03-17T00:55:11;2.40;99.90
8662;DHT22;29684;47.722;9.388;2023-03-17T00:57:56;2.30;99.90
8662;DHT22;29684;47.722;9.388;2023-03-17T01:00:41;2.20;99.90
8662;DHT22;29684;47.722;9.388;2023-03-17T01:03:26;2.40;99.90
8662;DHT22;29684;47.722;9.388;2023-03-17T01:06:12;2.40;99.90
8662;DHT22;29684;47.722;9.388;2023-03-17T01:08:58;2.30;99.90
8662;DHT22;29684;47.722;9.388;2023-03-17T01:11:42;2.30;99.90
8662;DHT22;29684;47.722;9.388;2023-03-17T01:14:27;2.30;99.90
8662;DHT22;29684;47.722;9.388;2023-03-17T01:17:15;2.20;99.90
8662;DHT22;29684;47.722;9.388;2023-03-17T01:20:00;2.20;99.90
8662;DHT22;29684;47.722;9.388;2023-03-17T01:22:44;2.30;99.90
8662;DHT22;29684;47.722;9.388;2023-03-17T01:25:29;2.30;99.90
8662;DHT22;29684;47.722;9.388;2023-03-17T01:28:16;2.30;99.90
8662;DHT22;29684;47.722;9.388;2023-03-17T01:31:01;2.30;99.90
8662;DHT22;29684;47.722;9.388;2023-03-17T01:33:45;2.10;99.90
8662;DHT22;29684;47.722;9.388;2023-03-17T01:36:30;1.90;99.90
8662;DHT22;29684;47.722;9.388;2023-03-17T01:39:14;1.90;99.90
8662;DHT22;29684;47.722;9.388;2023-03-17T01:41:59;1.90;99.90
8662;DHT22;29684;47.722;9.388;2023-03-17T01:44:59;1.90;99.90
8662;DHT22;29684;47.722;9.388;2023-03-17T01:47:44;2.10;99.90
8662;DHT22;29684;47.722;9.388;2023-03-17T01:50:29;2.20;99.90
8662;DHT22;29684;47.722;9.388;2023-03-17T01:53:15;2.20;99.90
8662;DHT22;29684;47.722;9.388;2023-03-17T01:56:00;2.20;99.90
8662;DHT22;29684;47.722;9.388;2023-03-17T01:58:48;2.00;99.90
8662;DHT22;29684;47.722;9.388;2023-03-17T02:01:37;1.90;99.90
8662;DHT22;29684;47.722;9.388;2023-03-17T02:04:25;1.70;99.90
8662;DHT22;29684;47.722;9.388;2023-03-17T02:07:10;1.70;99.90
8662;DHT22;29684;47.722;9.388;2023-03-17T02:09:56;1.70;99.90
8662;DHT22;29684;47.722;9.388;2023-03-17T02:12:42;1.70;99.90
8662;DHT22;29684;47.722;9.388;2023-03-17T02:15:39;1.90;99.90
8662;DHT22;29684;47.722;9.388;2023-03-17T02:18:23;2.00;99.90
8662;DHT22;29684;47.722;9.388;2023-03-17T02:21:28;2.10;99.90
8662;DHT22;29684;47.722;9.388;2023-03-17T02:27:25;2.10;99.90
8662;DHT22;29684;47.722;9.388;2023-03-17T02:30:17;2.00;99.90
8662;DHT22;29684;47.722;9.388;2023-03-17T02:33:02;2.20;99.90
8662;DHT22;29684;47.722;9.388;2023-03-17T02:35:47;2.30;99.90
8662;DHT22;29684;47.722;9.388;2023-03-17T02:38:31;2.30;99.90
8662;DHT22;29684;47.722;9.388;2023-03-17T02:41:15;2.50;99.90
8662;DHT22;29684;47.722;9.388;2023-03-17T02:44:00;2.40;99.90
8662;DHT22;29684;47.722;9.388;2023-03-17T02:46:44;2.20;99.90
8662;DHT22;29684;47.722;9.388;2023-03-17T02:49:29;1.80;99.90
8662;DHT22;29684;47.722;9.388;2023-03-17T02:52:15;1.70;99.90
8662;DHT22;29684;47.722;9.388;2023-03-17T02:55:00;1.60;99.90
8662;DHT22;29684;47.722;9.388;2023-03-17T02:57:44;1.70;99.90
8662;DHT22;29684;47.722;9.388;2023-03-17T03:00:28;4.10;99.90
8662;DHT22;29684;47.722;9.388;2023-03-17T03:03:13;1.90;99.90
8662;DHT22;29684;47.722;9.388;2023-03-17T03:05:57;2.10;99.90
8662;DHT22;29684;47.722;9.388;2023-03-17T03:08:42;2.10;99.90
8662;DHT22;29684;47.722;9.388;2023-03-17T03:11:26;2.10;99.90
8662;DHT22;29684;47.722;9.388;2023-03-17T03:14:12;2.00;99.90
8662;DHT22;29684;47.722;9.388;2023-03-17T03:16:57;1.90;99.90
8662;DHT22;29684;47.722;9.388;2023-03-17T03:19:41;1.80;99.90
8662;DHT22;29684;47.722;9.388;2023-03-17T03:22:26;2.00;99.90
8662;DHT22;29684;47.722;9.388;2023-03-17T03:25:10;2.10;99.90
8662;DHT22;29684;47.722;9.388;2023-03-17T03:27:54;2.10;99.90
8662;DHT22;29684;47.722;9.388;2023-03-17T03:30:39;2.10;99.90
8662;DHT22;29684;47.722;9.388;2023-03-17T03:33:24;1.90;99.90
8662;DHT22;29684;47.722;9.388;2023-03-17T03:36:08;1.90;99.90
8662;DHT22;29684;47.722;9.388;2023-03-17T03:38:53;1.90;99.90
8662;DHT22;29684;47.722;9.388;2023-03-17T03:41:37;2.00;99.90
8662;DHT22;29684;47.722;9.388;2023-03-17T03:44:22;2.20;99.90
8662;DHT22;29684;47.722;9.388;2023-03-17T03:47:06;2.40;99.90
8662;DHT22;29684;47.722;9.388;2023-03-17T03:49:50;2.40;99.90
8662;DHT22;29684;47.722;9.388;2023-03-17T03:52:35;2.30;99.90
8662;DHT22;29684;47.722;9.388;2023-03-17T03:55:19;2.20;99.90
8662;DHT22;29684;47.722;9.388;2023-03-17T03:58:03;2.00;99.90
8662;DHT22;29684;47.722;9.388;2023-03-17T04:00:48;1.90;99.90
8662;DHT22;29684;47.722;9.388;2023-03-17T04:03:32;1.90;99.90
8662;DHT22;29684;47.722;9.388;2023-03-17T04:06:17;1.90;99.90
8662;DHT22;29684;47.722;9.388;2023-03-17T04:09:01;1.80;99.90
8662;DHT22;29684;47.722;9.388;2023-03-17T04:11:46;2.00;99.90
8662;DHT22;29684;47.722;9.388;2023-03-17T04:14:30;2.10;99.90
8662;DHT22;29684;47.722;9.388;2023-03-17T04:17:14;2.20;99.90
8662;DHT22;29684;47.722;9.388;2023-03-17T04:19:58;2.30;99.90
8662;DHT22;29684;47.722;9.388;2023-03-17T04:22:43;2.30;99.90
8662;DHT22;29684;47.722;9.388;2023-03-17T04:25:27;2.30;99.90
8662;DHT22;29684;47.722;9.388;2023-03-17T04:28:11;2.40;99.90
8662;DHT22;29684;47.722;9.388;2023-03-17T04:30:56;2.30;99.90
8662;DHT22;29684;47.722;9.388;2023-03-17T04:33:40;2.40;99.90
8662;DHT22;29684;47.722;9.388;2023-03-17T04:36:25;2.30;99.90
8662;DHT22;29684;47.722;9.388;2023-03-17T04:39:10;2.40;99.90
8662;DHT22;29684;47.722;9.388;2023-03-17T04:41:54;2.40;99.90
8662;DHT22;29684;47.722;9.388;2023-03-17T04:44:39;2.40;99.90
8662;DHT22;29684;47.722;9.388;2023-03-17T04:47:24;2.40;99.90
8662;DHT22;29684;47.722;9.388;2023-03-17T04:50:09;2.40;99.90
8662;DHT22;29684;47.722;9.388;2023-03-17T04:52:53;2.40;99.90
8662;DHT22;29684;47.722;9.388;2023-03-17T04:55:37;2.30;99.90
8662;DHT22;29684;47.722;9.388;2023-03-17T04:58:22;2.30;99.90
8662;DHT22;29684;47.722;9.388;2023-03-17T05:01:07;2.20;99.90
8662;DHT22;29684;47.722;9.388;2023-03-17T05:03:52;2.20;99.90
8662;DHT22;29684;47.722;9.388;2023-03-17T05:06:36;4.10;99.90
8662;DHT22;29684;47.722;9.388;2023-03-17T05:09:21;2.10;99.90
8662;DHT22;29684;47.722;9.388;2023-03-17T05:12:06;2.10;99.90
8662;DHT22;29684;47.722;9.388;2023-03-17T05:14:51;2.00;99.90
8662;DHT22;29684;47.722;9.388;2023-03-17T05:17:36;2.00;99.90
8662;DHT22;29684;47.722;9.388;2023-03-17T05:20:20;2.00;99.90
8662;DHT22;29684;47.722;9.388;2023-03-17T05:23:04;2.00;99.90
8662;DHT22;29684;47.722;9.388;2023-03-17T05:25:48;2.00;99.90
8662;DHT22;29684;47.722;9.388;2023-03-17T05:28:32;2.00;99.90
8662;DHT22;29684;47.722;9.388;2023-03-17T05:31:16;2.00;99.90
8662;DHT22;29684;47.722;9.388;2023-03-17T05:34:02;2.20;99.90
8662;DHT22;29684;47.722;9.388;2023-03-17T05:36:47;2.10;99.90
8662;DHT22;29684;47.722;9.388;2023-03-17T05:39:31;1.90;99.90
8662;DHT22;29684;47.722;9.388;2023-03-17T05:42:16;1.70;99.90
8662;DHT22;29684;47.722;9.388;2023-03-17T05:45:00;1.70;99.90
8662;DHT22;29684;47.722;9.388;2023-03-17T05:47:45;1.70;99.90
8662;DHT22;29684;47.722;9.388;2023-03-17T05:50:29;1.70;99.90
8662;DHT22;29684;47.722;9.388;2023-03-17T05:53:14;1.60;99.90
8662;DHT22;29684;47.722;9.388;2023-03-17T05:55:59;1.70;99.90
8662;DHT22;29684;47.722;9.388;2023-03-17T05:58:43;1.80;99.90
8662;DHT22;29684;47.722;9.388;2023-03-17T06:01:28;1.60;99.90
8662;DHT22;29684;47.722;9.388;2023-03-17T06:04:13;1.60;99.90
8662;DHT22;29684;47.722;9.388;2023-03-17T06:06:58;1.70;99.90
8662;DHT22;29684;47.722;9.388;2023-03-17T06:09:42;1.60;99.90
8662;DHT22;29684;47.722;9.388;2023-03-17T06:12:26;1.80;99.90
8662;DHT22;29684;47.722;9.388;2023-03-17T06:15:11;1.90;99.90
8662;DHT22;29684;47.722;9.388;2023-03-17T06:17:55;1.80;99.90
8662;DHT22;29684;47.722;9.388;2023-03-17T06:20:40;1.60;99.90
8662;DHT22;29684;47.722;9.388;2023-03-17T06:23:25;1.70;99.90
8662;DHT22;29684;47.722;9.388;2023-03-17T06:26:09;1.50;99.90
8662;DHT22;29684;47.722;9.388;2023-03-17T06:28:54;1.50;99.90
8662;DHT22;29684;47.722;9.388;2023-03-17T06:31:38;1.40;99.90
8662;DHT22;29684;47.722;9.388;2023-03-17T06:34:23;1.40;99.90
8662;DHT22;29684;47.722;9.388;2023-03-17T06:37:08;1.30;99.90
8662;DHT22;29684;47.722;9.388;2023-03-17T06:39:53;1.50;99.90
8662;DHT22;29684;47.722;9.388;2023-03-17T06:42:37;1.60;99.90
8662;DHT22;29684;47.722;9.388;2023-03-17T06:45:21;1.80;99.90
8662;DHT22;29684;47.722;9.388;2023-03-17T06:48:05;2.00;99.90
8662;DHT22;29684;47.722;9.388;2023-03-17T06:50:51;4.00;99.90
8662;DHT22;29684;47.722;9.388;2023-03-17T06:53:35;2.10;99.90
8662;DHT22;29684;47.722;9.388;2023-03-17T06:56:20;2.20;99.90
8662;DHT22;29684;47.722;9.388;2023-03-17T06:59:04;2.30;99.90
8662;DHT22;29684;47.722;9.388;2023-03-17T07:01:49;2.30;99.90
8662;DHT22;29684;47.722;9.388;2023-03-17T07:04:34;2.50;99.90
8662;DHT22;29684;47.722;9.388;2023-03-17T07:07:21;2.60;99.90
8662;DHT22;29684;47.722;9.388;2023-03-17T07:10:05;2.70;99.90
8662;DHT22;29684;47.722;9.388;2023-03-17T07:12:49;2.80;99.90
8662;DHT22;29684;47.722;9.388;2023-03-17T07:15:33;3.00;99.90
8662;DHT22;29684;47.722;9.388;2023-03-17T07:18:19;3.10;99.90
8662;DHT22;29684;47.722;9.388;2023-03-17T07:21:03;5.20;99.90
8662;DHT22;29684;47.722;9.388;2023-03-17T07:23:47;3.50;99.90
8662;DHT22;29684;47.722;9.388;2023-03-17T07:26:31;3.70;99.90
8662;DHT22;29684;47.722;9.388;2023-03-17T07:29:16;3.90;99.90
8662;DHT22;29684;47.722;9.388;2023-03-17T07:32:00;4.00;99.90
8662;DHT22;29684;47.722;9.388;2023-03-17T07:34:44;4.20;99.90
8662;DHT22;29684;47.722;9.388;2023-03-17T07:37:29;4.30;99.90
8662;DHT22;29684;47.722;9.388;2023-03-17T07:40:13;4.40;99.90
8662;DHT22;29684;47.722;9.388;2023-03-17T07:42:57;4.30;99.90
8662;DHT22;29684;47.722;9.388;2023-03-17T07:45:43;4.30;99.90
8662;DHT22;29684;47.722;9.388;2023-03-17T07:48:28;4.50;99.90
8662;DHT22;29684;47.722;9.388;2023-03-17T07:51:15;4.40;99.90
8662;DHT22;29684;47.722;9.388;2023-03-17T07:54:00;4.60;99.90
8662;DHT22;29684;47.722;9.388;2023-03-17T07:56:48;4.80;99.90
8662;DHT22;29684;47.722;9.388;2023-03-17T07:59:33;5.00;99.90
8662;DHT22;29684;47.722;9.388;2023-03-17T08:02:18;5.20;99.90
8662;DHT22;29684;47.722;9.388;2023-03-17T08:05:03;5.40;99.90
8662;DHT22;29684;47.722;9.388;2023-03-17T08:07:48;5.60;99.90
8662;DHT22;29684;47.722;9.388;2023-03-17T08:10:33;5.70;99.90
8662;DHT22;29684;47.722;9.388;2023-03-17T08:13:18;5.90;99.90
8662;DHT22;29684;47.722;9.388;2023-03-17T08:16:03;6.00;99.90
8662;DHT22;29684;47.722;9.388;2023-03-17T08:18:47;6.10;99.90
8662;DHT22;29684;47.722;9.388;2023-03-17T08:21:31;6.30;99.90
8662;DHT22;29684;47.722;9.388;2023-03-17T08:24:16;6.60;99.90
8662;DHT22;29684;47.722;9.388;2023-03-17T08:27:00;6.70;99.90
8662;DHT22;29684;47.722;9.388;2023-03-17T08:29:44;6.90;99.90
8662;DHT22;29684;47.722;9.388;2023-03-17T08:32:29;7.00;99.90
8662;DHT22;29684;47.722;9.388;2023-03-17T08:35:14;7.10;99.90
8662;DHT22;29684;47.722;9.388;2023-03-17T08:37:59;7.10;99.90
8662;DHT22;29684;47.722;9.388;2023-03-17T08:40:43;7.10;99.90
8662;DHT22;29684;47.722;9.388;2023-03-17T08:43:29;7.30;99.90
8662;DHT22;29684;47.722;9.388;2023-03-17T08:49:00;7.80;99.90
8662;DHT22;29684;47.722;9.388;2023-03-17T08:51:46;8.10;99.90
8662;DHT22;29684;47.722;9.388;2023-03-17T08:54:30;8.10;99.90
8662;DHT22;29684;47.722;9.388;2023-03-17T08:57:15;8.10;99.90
8662;DHT22;29684;47.722;9.388;2023-03-17T08:59:59;8.10;99.90
8662;DHT22;29684;47.722;9.388;2023-03-17T09:02:44;8.20;99.90
8662;DHT22;29684;47.722;9.388;2023-03-17T09:05:29;8.60;99.90
8662;DHT22;29684;47.722;9.388;2023-03-17T09:08:14;9.00;99.90
8662;DHT22;29684;47.722;9.388;2023-03-17T09:10:59;9.30;99.90
8662;DHT22;29684;47.722;9.388;2023-03-17T09:13:46;9.60;99.90
8662;DHT22;29684;47.722;9.388;2023-03-17T09:16:31;10.70;99.90
8662;DHT22;29684;47.722;9.388;2023-03-17T09:19:17;9.50;99.90
8662;DHT22;29684;47.722;9.388;2023-03-17T09:22:01;9.70;99.90
8662;DHT22;29684;47.722;9.388;2023-03-17T09:24:46;10.50;99.90
8662;DHT22;29684;47.722;9.388;2023-03-17T09:27:30;10.00;99.90
8662;DHT22;29684;47.722;9.388;2023-03-17T09:30:15;10.10;99.90
8662;DHT22;29684;47.722;9.388;2023-03-17T09:33:02;10.20;99.90
8662;DHT22;29684;47.722;9.388;2023-03-17T09:35:50;10.20;99.90
8662;DHT22;29684;47.722;9.388;2023-03-17T09:38:35;10.30;99.90
8662;DHT22;29684;47.722;9.388;2023-03-17T09:50:26;10.10;99.90
8662;DHT22;29684;47.722;9.388;2023-03-17T09:53:19;10.30;99.90
8662;DHT22;29684;47.722;9.388;2023-03-17T09:56:07;10.50;99.90
8662;DHT22;29684;47.722;9.388;2023-03-17T09:59:26;10.30;99.90
8662;DHT22;29684;47.722;9.388;2023-03-17T10:02:33;10.60;99.90
8662;DHT22;29684;47.722;9.388;2023-03-17T10:05:23;10.90;99.90
8662;DHT22;29684;47.722;9.388;2023-03-17T10:14:24;11.00;99.90
8662;DHT22;29684;47.722;9.388;2023-03-17T10:17:17;11.10;99.90
8662;DHT22;29684;47.722;9.388;2023-03-17T10:20:04;11.50;99.90
8662;DHT22;29684;47.722;9.388;2023-03-17T10:25:37;12.10;99.90
8662;DHT22;29684;47.722;9.388;2023-03-17T10:28:28;12.00;99.90
8662;DHT22;29684;47.722;9.388;2023-03-17T10:31:17;11.90;99.90
8662;DHT22;29684;47.722;9.388;2023-03-17T10:34:17;12.30;99.90
8662;DHT22;29684;47.722;9.388;2023-03-17T10:37:19;12.60;99.90
8662;DHT22;29684;47.722;9.388;2023-03-17T10:40:07;12.70;99.90
8662;DHT22;29684;47.722;9.388;2023-03-17T10:43:03;12.90;99.90
8662;DHT22;29684;47.722;9.388;2023-03-17T10:46:03;13.20;99.90
8662;DHT22;29684;47.722;9.388;2023-03-17T10:48:54;12.90;99.90
8662;DHT22;29684;47.722;9.388;2023-03-17T10:51:39;13.00;99.90
8662;DHT22;29684;47.722;9.388;2023-03-17T10:54:34;12.90;99.90
8662;DHT22;29684;47.722;9.388;2023-03-17T10:57:20;13.40;99.90
8662;DHT22;29684;47.722;9.388;2023-03-17T11:00:13;13.60;99.90
8662;DHT22;29684;47.722;9.388;2023-03-17T11:03:10;13.70;99.90
8662;DHT22;29684;47.722;9.388;2023-03-17T11:06:09;14.00;99.90
8662;DHT22;29684;47.722;9.388;2023-03-17T11:08:55;13.90;99.90
8662;DHT22;29684;47.722;9.388;2023-03-17T11:11:48;14.20;99.90
8662;DHT22;29684;47.722;9.388;2023-03-17T11:14:32;14.10;99.90
8662;DHT22;29684;47.722;9.388;2023-03-17T11:17:22;13.90;99.90
8662;DHT22;29684;47.722;9.388;2023-03-17T11:20:33;13.70;99.90
8662;DHT22;29684;47.722;9.388;2023-03-17T11:38:30;13.50;99.90
8662;DHT22;29684;47.722;9.388;2023-03-17T11:56:41;14.00;99.90
8662;DHT22;29684;47.722;9.388;2023-03-17T11:59:44;14.10;99.90
8662;DHT22;29684;47.722;9.388;2023-03-17T12:02:44;14.30;99.90
8662;DHT22;29684;47.722;9.388;2023-03-17T12:05:32;14.20;99.90
8662;DHT22;29684;47.722;9.388;2023-03-17T12:11:30;14.40;99.90
8662;DHT22;29684;47.722;9.388;2023-03-17T12:17:10;14.30;99.90
8662;DHT22;29684;47.722;9.388;2023-03-17T12:20:19;14.30;99.90
8662;DHT22;29684;47.722;9.388;2023-03-17T12:26:07;15.10;99.90
8662;DHT22;29684;47.722;9.388;2023-03-17T12:32:02;15.60;99.90
8662;DHT22;29684;47.722;9.388;2023-03-17T12:34:55;15.30;99.90
8662;DHT22;29684;47.722;9.388;2023-03-17T12:37:40;15.00;99.90
8662;DHT22;29684;47.722;9.388;2023-03-17T12:40:33;15.30;99.90
8662;DHT22;29684;47.722;9.388;2023-03-17T12:55:32;16.00;99.90
8662;DHT22;29684;47.722;9.388;2023-03-17T12:58:29;15.90;99.90
8662;DHT22;29684;47.722;9.388;2023-03-17T13:01:38;16.50;99.90
8662;DHT22;29684;47.722;9.388;2023-03-17T13:04:31;17.30;99.50
8662;DHT22;29684;47.722;9.388;2023-03-17T13:07:23;17.20;98.80
8662;DHT22;29684;47.722;9.388;2023-03-17T13:16:02;16.80;98.60
8662;DHT22;29684;47.722;9.388;2023-03-17T13:18:48;17.70;97.70
8662;DHT22;29684;47.722;9.388;2023-03-17T13:21:33;18.10;96.80
8662;DHT22;29684;47.722;9.388;2023-03-17T13:24:20;18.30;96.40
8662;DHT22;29684;47.722;9.388;2023-03-17T13:27:12;18.80;95.80
8662;DHT22;29684;47.722;9.388;2023-03-17T13:29:58;19.20;95.20
8662;DHT22;29684;47.722;9.388;2023-03-17T13:32:52;19.30;94.80
8662;DHT22;29684;47.722;9.388;2023-03-17T13:45:15;19.50;94.00
8662;DHT22;29684;47.722;9.388;2023-03-17T13:51:13;20.20;93.00
8662;DHT22;29684;47.722;9.388;2023-03-17T14:00:26;20.80;90.70
8662;DHT22;29684;47.722;9.388;2023-03-17T14:06:23;19.10;91.10
8662;DHT22;29684;47.722;9.388;2023-03-17T14:12:24;19.10;91.80
8662;DHT22;29684;47.722;9.388;2023-03-17T14:15:40;19.20;91.40
8662;DHT22;29684;47.722;9.388;2023-03-17T14:18:35;19.30;91.20
8662;DHT22;29684;47.722;9.388;2023-03-17T14:21:32;19.50;90.60
8662;DHT22;29684;47.722;9.388;2023-03-17T14:24:22;19.30;90.90
8662;DHT22;29684;47.722;9.388;2023-03-17T14:27:07;19.50;91.10
8662;DHT22;29684;47.722;9.388;2023-03-17T14:29:52;18.80;91.40
8662;DHT22;29684;47.722;9.388;2023-03-17T14:32:36;18.00;91.00
8662;DHT22;29684;47.722;9.388;2023-03-17T14:35:20;18.00;91.00
8662;DHT22;29684;47.722;9.388;2023-03-17T14:38:32;17.70;91.10
8662;DHT22;29684;47.722;9.388;2023-03-17T14:41:26;17.70;92.40
8662;DHT22;29684;47.722;9.388;2023-03-17T14:44:10;18.10;92.20
8662;DHT22;29684;47.722;9.388;2023-03-17T14:47:11;17.50;92.30
8662;DHT22;29684;47.722;9.388;2023-03-17T14:49:57;17.20;93.10
8662;DHT22;29684;47.722;9.388;2023-03-17T14:52:41;17.30;93.40
8662;DHT22;29684;47.722;9.388;2023-03-17T14:55:36;17.30;93.30
8662;DHT22;29684;47.722;9.388;2023-03-17T14:58:33;17.60;93.30
8662;DHT22;29684;47.722;9.388;2023-03-17T15:04:19;18.00;93.20
8662;DHT22;29684;47.722;9.388;2023-03-17T15:07:05;18.20;93.00
8662;DHT22;29684;47.722;9.388;2023-03-17T15:09:59;18.20;92.40
8662;DHT22;29684;47.722;9.388;2023-03-17T15:12:45;17.60;92.30
8662;DHT22;29684;47.722;9.388;2023-03-17T15:15:33;17.50;92.50
8662;DHT22;29684;47.722;9.388;2023-03-17T15:18:18;17.20;92.50
8662;DHT22;29684;47.722;9.388;2023-03-17T15:21:21;17.00;93.10
8662;DHT22;29684;47.722;9.388;2023-03-17T15:27:16;16.50;94.20
8662;DHT22;29684;47.722;9.388;2023-03-17T15:30:00;16.50;94.10
8662;DHT22;29684;47.722;9.388;2023-03-17T15:33:51;16.80;94.30
8662;DHT22;29684;47.722;9.388;2023-03-17T15:36:16;17.30;94.30
8662;DHT22;29684;47.722;9.388;2023-03-17T15:39:01;17.80;93.60
8662;DHT22;29684;47.722;9.388;2023-03-17T15:41:46;17.50;94.20
8662;DHT22;29684;47.722;9.388;2023-03-17T15:44:30;17.40;94.20
8662;DHT22;29684;47.722;9.388;2023-03-17T15:47:16;17.20;94.20
8662;DHT22;29684;47.722;9.388;2023-03-17T15:50:15;17.60;94.10
8662;DHT22;29684;47.722;9.388;2023-03-17T15:52:59;17.60;94.00
8662;DHT22;29684;47.722;9.388;2023-03-17T15:55:44;17.30;94.20
8662;DHT22;29684;47.722;9.388;2023-03-17T15:58:28;17.30;94.20
8662;DHT22;29684;47.722;9.388;2023-03-17T16:01:13;17.40;94.50
8662;DHT22;29684;47.722;9.388;2023-03-17T16:03:57;17.50;94.50
8662;DHT22;29684;47.722;9.388;2023-03-17T16:06:42;18.10;94.50
8662;DHT22;29684;47.722;9.388;2023-03-17T16:09:26;18.30;94.30
8662;DHT22;29684;47.722;9.388;2023-03-17T16:12:11;19.20;93.90
8662;DHT22;29684;47.722;9.388;2023-03-17T16:14:55;20.10;93.20
8662;DHT22;29684;47.722;9.388;2023-03-17T16:17:39;20.00;92.80
8662;DHT22;29684;47.722;9.388;2023-03-17T16:20:38;19.20;92.70
8662;DHT22;29684;47.722;9.388;2023-03-17T16:23:25;18.70;92.90
8662;DHT22;29684;47.722;9.388;2023-03-17T16:26:11;17.80;93.20
8662;DHT22;29684;47.722;9.388;2023-03-17T16:28:55;17.70;93.80
8662;DHT22;29684;47.722;9.388;2023-03-17T16:31:40;17.70;94.20
8662;DHT22;29684;47.722;9.388;2023-03-17T16:34:25;17.60;93.80
8662;DHT22;29684;47.722;9.388;2023-03-17T16:37:15;17.50;93.90
8662;DHT22;29684;47.722;9.388;2023-03-17T16:40:00;17.20;94.30
8662;DHT22;29684;47.722;9.388;2023-03-17T16:42:45;16.70;94.70
8662;DHT22;29684;47.722;9.388;2023-03-17T16:45:31;16.40;95.00
8662;DHT22;29684;47.722;9.388;2023-03-17T16:48:16;16.20;94.80
8662;DHT22;29684;47.722;9.388;2023-03-17T16:51:00;15.90;96.50
8662;DHT22;29684;47.722;9.388;2023-03-17T16:53:45;15.70;96.70
8662;DHT22;29684;47.722;9.388;2023-03-17T16:56:29;15.50;96.80
8662;DHT22;29684;47.722;9.388;2023-03-17T16:59:18;15.30;97.40
8662;DHT22;29684;47.722;9.388;2023-03-17T17:02:13;15.10;98.00
8662;DHT22;29684;47.722;9.388;2023-03-17T17:04:58;15.00;98.40
8662;DHT22;29684;47.722;9.388;2023-03-17T17:07:45;14.60;99.40
8662;DHT22;29684;47.722;9.388;2023-03-17T17:10:31;14.30;99.90
8662;DHT22;29684;47.722;9.388;2023-03-17T17:13:17;14.00;99.90
8662;DHT22;29684;47.722;9.388;2023-03-17T17:16:02;13.90;99.90
8662;DHT22;29684;47.722;9.388;2023-03-17T17:18:46;13.80;99.90
8662;DHT22;29684;47.722;9.388;2023-03-17T17:21:30;13.70;99.90
8662;DHT22;29684;47.722;9.388;2023-03-17T17:24:15;13.50;99.90
8662;DHT22;29684;47.722;9.388;2023-03-17T17:26:59;13.30;99.90
8662;DHT22;29684;47.722;9.388;2023-03-17T17:29:43;13.20;99.90
8662;DHT22;29684;47.722;9.388;2023-03-17T17:32:27;13.10;99.90
8662;DHT22;29684;47.722;9.388;2023-03-17T17:35:13;13.00;99.90
8662;DHT22;29684;47.722;9.388;2023-03-17T17:37:58;13.00;99.90
8662;DHT22;29684;47.722;9.388;2023-03-17T17:40:42;12.90;99.90
8662;DHT22;29684;47.722;9.388;2023-03-17T17:43:26;12.70;99.90
8662;DHT22;29684;47.722;9.388;2023-03-17T17:46:15;12.60;99.90
8662;DHT22;29684;47.722;9.388;2023-03-17T17:48:59;12.60;99.90
8662;DHT22;29684;47.722;9.388;2023-03-17T17:51:43;12.40;99.90
8662;DHT22;29684;47.722;9.388;2023-03-17T17:54:28;12.30;99.90
8662;DHT22;29684;47.722;9.388;2023-03-17T17:57:12;12.20;99.90
8662;DHT22;29684;47.722;9.388;2023-03-17T17:59:56;12.10;99.90
8662;DHT22;29684;47.722;9.388;2023-03-17T18:02:41;11.90;99.90
8662;DHT22;29684;47.722;9.388;2023-03-17T18:05:26;11.80;99.90
8662;DHT22;29684;47.722;9.388;2023-03-17T18:08:13;11.70;99.90
8662;DHT22;29684;47.722;9.388;2023-03-17T18:10:57;11.60;99.90
8662;DHT22;29684;47.722;9.388;2023-03-17T18:13:41;11.50;99.90
8662;DHT22;29684;47.722;9.388;2023-03-17T18:16:25;11.50;99.90
8662;DHT22;29684;47.722;9.388;2023-03-17T18:19:11;11.40;99.90
8662;DHT22;29684;47.722;9.388;2023-03-17T18:21:55;11.30;99.90
8662;DHT22;29684;47.722;9.388;2023-03-17T18:24:40;11.20;99.90
8662;DHT22;29684;47.722;9.388;2023-03-17T18:27:25;11.10;99.90
8662;DHT22;29684;47.722;9.388;2023-03-17T18:30:11;11.00;99.90
8662;DHT22;29684;47.722;9.388;2023-03-17T18:33:01;10.80;99.90
8662;DHT22;29684;47.722;9.388;2023-03-17T18:35:48;10.70;99.90
8662;DHT22;29684;47.722;9.388;2023-03-17T18:38:35;10.60;99.90
8662;DHT22;29684;47.722;9.388;2023-03-17T18:41:19;10.50;99.90
8662;DHT22;29684;47.722;9.388;2023-03-17T18:44:03;10.50;99.90
8662;DHT22;29684;47.722;9.388;2023-03-17T18:46:50;10.50;99.90
8662;DHT22;29684;47.722;9.388;2023-03-17T18:49:34;10.50;99.90
8662;DHT22;29684;47.722;9.388;2023-03-17T18:52:18;10.40;99.90
8662;DHT22;29684;47.722;9.388;2023-03-17T18:55:03;10.40;99.90
8662;DHT22;29684;47.722;9.388;2023-03-17T18:57:48;10.40;99.90
8662;DHT22;29684;47.722;9.388;2023-03-17T19:00:32;10.20;99.90
8662;DHT22;29684;47.722;9.388;2023-03-17T19:03:17;10.20;99.90
8662;DHT22;29684;47.722;9.388;2023-03-17T19:06:10;10.10;99.90
8662;DHT22;29684;47.722;9.388;2023-03-17T19:08:55;10.10;99.90
8662;DHT22;29684;47.722;9.388;2023-03-17T19:11:39;10.10;99.90
8662;DHT22;29684;47.722;9.388;2023-03-17T19:14:23;9.90;99.90
8662;DHT22;29684;47.722;9.388;2023-03-17T19:17:07;9.90;99.90
8662;DHT22;29684;47.722;9.388;2023-03-17T19:19:52;9.90;99.90
8662;DHT22;29684;47.722;9.388;2023-03-17T19:22:36;9.80;99.90
8662;DHT22;29684;47.722;9.388;2023-03-17T19:25:20;9.80;99.90
8662;DHT22;29684;47.722;9.388;2023-03-17T19:28:05;9.80;99.90
8662;DHT22;29684;47.722;9.388;2023-03-17T19:30:49;9.70;99.90
8662;DHT22;29684;47.722;9.388;2023-03-17T19:33:35;9.60;99.90
8662;DHT22;29684;47.722;9.388;2023-03-17T19:36:19;9.60;99.90
8662;DHT22;29684;47.722;9.388;2023-03-17T19:39:04;9.60;99.90
8662;DHT22;29684;47.722;9.388;2023-03-17T19:41:48;9.60;99.90
8662;DHT22;29684;47.722;9.388;2023-03-17T19:44:36;9.80;99.90
8662;DHT22;29684;47.722;9.388;2023-03-17T19:47:20;9.60;99.90
8662;DHT22;29684;47.722;9.388;2023-03-17T19:50:05;9.60;99.90
8662;DHT22;29684;47.722;9.388;2023-03-17T19:52:50;9.50;99.90
8662;DHT22;29684;47.722;9.388;2023-03-17T19:55:36;9.50;99.90
8662;DHT22;29684;47.722;9.388;2023-03-17T19:58:20;9.40;99.90